sensor_id;sensor_type;location;lat;lon;timestamp;pressure;altitude;pressure_sealevel;temperature;humidity
48796;BME280;34607;48.520;-1.330;2023-05-23T07:35:36;100883.38;;;14.60;95.50
48796;BME280;34607;48.520;-1.330;2023-05-23T07:38:04;100886.84;;;14.61;95.26
48796;BME280;34607;48.520;-1.330;2023-05-23T07:40:31;100893.00;;;14.69;95.22
48796;BME280;34607;48.520;-1.330;2023-05-23T07:42:58;100905.09;;;14.61;95.71
48796;BME280;34607;48.520;-1.330;2023-05-23T07:45:25;100905.78;;;14.48;95.99
48796;BME280;34607;48.520;-1.330;2023-05-23T07:47:52;100902.28;;;14.42;96.19
48796;BME280;34607;48.520;-1.330;2023-05-23T07:50:19;100899.59;;;14.33;96.66
48796;BME280;34607;48.520;-1.330;2023-05-23T07:52:49;100898.03;;;14.52;96.06
48796;BME280;34607;48.520;-1.330;2023-05-23T07:55:22;100906.72;;;14.50;96.33
48796;BME280;34607;48.520;-1.330;2023-05-23T07:57:49;100901.53;;;14.56;96.30
48796;BME280;34607;48.520;-1.330;2023-05-23T08:00:18;100891.16;;;14.59;95.54
48796;BME280;34607;48.520;-1.330;2023-05-23T08:02:48;100894.72;;;14.67;96.06
48796;BME280;34607;48.520;-1.330;2023-05-23T08:05:22;100894.75;;;14.70;96.04
48796;BME280;34607;48.520;-1.330;2023-05-23T08:07:54;100894.75;;;14.73;95.73
48796;BME280;34607;48.520;-1.330;2023-05-23T08:10:21;100894.75;;;14.70;95.64
48796;BME280;34607;48.520;-1.330;2023-05-23T08:12:48;100901.78;;;14.84;95.42
48796;BME280;34607;48.520;-1.330;2023-05-23T08:15:18;100898.28;;;14.75;95.04
48796;BME280;34607;48.520;-1.330;2023-05-23T08:17:50;100894.84;;;14.83;95.30
48796;BME280;34607;48.520;-1.330;2023-05-23T08:20:21;100900.09;;;14.89;94.99
48796;BME280;34607;48.520;-1.330;2023-05-23T08:22:57;100897.47;;;14.89;94.50
48796;BME280;34607;48.520;-1.330;2023-05-23T08:25:24;100910.41;;;14.73;95.04
48796;BME280;34607;48.520;-1.330;2023-05-23T08:27:55;100906.91;;;14.71;95.09
48796;BME280;34607;48.520;-1.330;2023-05-23T08:30:41;100915.69;;;14.81;94.55
48796;BME280;34607;48.520;-1.330;2023-05-23T08:33:08;100913.13;;;14.86;94.22
48796;BME280;34607;48.520;-1.330;2023-05-23T08:35:37;100908.81;;;14.91;94.17
48796;BME280;34607;48.520;-1.330;2023-05-23T08:38:09;100903.72;;;15.09;93.87
48796;BME280;34607;48.520;-1.330;2023-05-23T08:40:50;100892.53;;;15.26;93.06
48796;BME280;34607;48.520;-1.330;2023-05-23T08:43:19;100899.59;;;15.48;92.01
48796;BME280;34607;48.520;-1.330;2023-05-23T08:45:48;100888.47;;;15.80;91.60
48796;BME280;34607;48.520;-1.330;2023-05-23T08:48:18;100871.94;;;15.94;90.04
48796;BME280;34607;48.520;-1.330;2023-05-23T08:50:49;100907.63;;;15.84;89.41
48796;BME280;34607;48.520;-1.330;2023-05-23T08:53:22;100919.72;;;15.68;90.06
48796;BME280;34607;48.520;-1.330;2023-05-23T08:55:59;100917.06;;;15.63;90.18
48796;BME280;34607;48.520;-1.330;2023-05-23T08:58:34;100921.38;;;15.53;90.40
48796;BME280;34607;48.520;-1.330;2023-05-23T09:01:03;100919.66;;;15.60;90.09
48796;BME280;34607;48.520;-1.330;2023-05-23T09:03:31;100927.53;;;15.66;89.77
48796;BME280;34607;48.520;-1.330;2023-05-23T09:06:09;100931.88;;;15.61;89.11
48796;BME280;34607;48.520;-1.330;2023-05-23T09:08:38;100923.09;;;15.51;89.93
48796;BME280;34607;48.520;-1.330;2023-05-23T09:11:06;100919.69;;;15.63;89.34
48796;BME280;34607;48.520;-1.330;2023-05-23T09:13:37;100921.56;;;15.87;88.72
48796;BME280;34607;48.520;-1.330;2023-05-23T09:16:09;100922.50;;;16.14;88.27
48796;BME280;34607;48.520;-1.330;2023-05-23T09:18:47;100916.50;;;16.80;86.21
48796;BME280;34607;48.520;-1.330;2023-05-23T09:21:16;100912.13;;;17.19;84.80
48796;BME280;34607;48.520;-1.330;2023-05-23T09:24:06;100919.81;;;17.74;83.16
48796;BME280;34607;48.520;-1.330;2023-05-23T09:26:33;100915.41;;;17.76;82.46
48796;BME280;34607;48.520;-1.330;2023-05-23T09:29:04;100924.09;;;18.00;82.06
48796;BME280;34607;48.520;-1.330;2023-05-23T09:31:31;100920.53;;;18.07;81.77
48796;BME280;34607;48.520;-1.330;2023-05-23T09:33:58;100925.00;;;17.98;81.74
48796;BME280;34607;48.520;-1.330;2023-05-23T09:36:27;100918.91;;;17.80;82.07
48796;BME280;34607;48.520;-1.330;2023-05-23T09:38:55;100919.84;;;17.65;82.03
48796;BME280;34607;48.520;-1.330;2023-05-23T09:41:29;100916.44;;;17.45;82.09
48796;BME280;34607;48.520;-1.330;2023-05-23T09:43:56;100921.66;;;17.32;82.90
48796;BME280;34607;48.520;-1.330;2023-05-23T09:46:27;100926.94;;;17.26;82.59
48796;BME280;34607;48.520;-1.330;2023-05-23T09:48:55;100916.47;;;17.28;83.16
48796;BME280;34607;48.520;-1.330;2023-05-23T09:51:23;100920.72;;;17.67;82.16
48796;BME280;34607;48.520;-1.330;2023-05-23T09:53:50;100916.31;;;17.71;81.86
48796;BME280;34607;48.520;-1.330;2023-05-23T09:56:18;100935.50;;;17.79;81.56
48796;BME280;34607;48.520;-1.330;2023-05-23T09:58:48;100916.22;;;18.00;81.53
48796;BME280;34607;48.520;-1.330;2023-05-23T10:01:16;100923.13;;;18.17;81.26
48796;BME280;34607;48.520;-1.330;2023-05-23T10:03:45;100919.50;;;18.39;80.02
48796;BME280;34607;48.520;-1.330;2023-05-23T10:06:17;100920.81;;;18.99;79.81
48796;BME280;34607;48.520;-1.330;2023-05-23T10:08:53;100910.84;;;19.30;77.81
48796;BME280;34607;48.520;-1.330;2023-05-23T10:11:55;100904.00;;;19.14;76.14
48796;BME280;34607;48.520;-1.330;2023-05-23T10:14:37;100917.16;;;19.11;78.02
48796;BME280;34607;48.520;-1.330;2023-05-23T10:17:09;100905.97;;;18.92;77.94
48796;BME280;34607;48.520;-1.330;2023-05-23T10:19:42;100898.28;;;18.68;78.21
48796;BME280;34607;48.520;-1.330;2023-05-23T10:22:11;100920.09;;;18.77;78.44
48796;BME280;34607;48.520;-1.330;2023-05-23T10:24:39;100925.63;;;18.35;79.43
48796;BME280;34607;48.520;-1.330;2023-05-23T10:27:08;100924.75;;;18.34;80.60
48796;BME280;34607;48.520;-1.330;2023-05-23T10:29:36;100912.25;;;18.69;79.41
48796;BME280;34607;48.520;-1.330;2023-05-23T10:32:04;100929.75;;;18.73;78.69
48796;BME280;34607;48.520;-1.330;2023-05-23T10:34:37;100908.66;;;18.85;78.93
48796;BME280;34607;48.520;-1.330;2023-05-23T10:37:07;100911.88;;;19.14;77.11
48796;BME280;34607;48.520;-1.330;2023-05-23T10:39:45;100912.03;;;19.82;77.23
48796;BME280;34607;48.520;-1.330;2023-05-23T10:42:19;100909.75;;;20.19;75.31
48796;BME280;34607;48.520;-1.330;2023-05-23T10:44:51;100910.81;;;20.08;75.29
48796;BME280;34607;48.520;-1.330;2023-05-23T10:47:26;100898.72;;;20.53;74.49
48796;BME280;34607;48.520;-1.330;2023-05-23T10:49:54;100907.31;;;20.65;74.45
48796;BME280;34607;48.520;-1.330;2023-05-23T10:52:23;100899.84;;;20.93;73.13
48796;BME280;34607;48.520;-1.330;2023-05-23T10:54:53;100900.44;;;21.07;73.37
48796;BME280;34607;48.520;-1.330;2023-05-23T10:57:21;100898.38;;;21.25;72.15
48796;BME280;34607;48.520;-1.330;2023-05-23T10:59:52;100898.81;;;21.48;72.02
48796;BME280;34607;48.520;-1.330;2023-05-23T11:02:24;100810.56;;;20.81;69.57
48796;BME280;34607;48.520;-1.330;2023-05-23T11:05:19;100908.78;;;21.31;67.83
48796;BME280;34607;48.520;-1.330;2023-05-23T11:08:05;100872.47;;;21.02;70.03
48796;BME280;34607;48.520;-1.330;2023-05-23T11:10:32;100894.94;;;21.21;69.28
48796;BME280;34607;48.520;-1.330;2023-05-23T11:13:18;100896.44;;;20.88;69.23
48796;BME280;34607;48.520;-1.330;2023-05-23T11:15:47;100895.88;;;21.19;69.44
48796;BME280;34607;48.520;-1.330;2023-05-23T11:18:26;100884.75;;;21.49;67.25
48796;BME280;34607;48.520;-1.330;2023-05-23T11:20:53;100902.53;;;21.82;67.29
48796;BME280;34607;48.520;-1.330;2023-05-23T11:23:21;100872.78;;;21.77;67.15
48796;BME280;34607;48.520;-1.330;2023-05-23T11:25:50;100891.06;;;21.83;65.31
48796;BME280;34607;48.520;-1.330;2023-05-23T11:28:18;100897.00;;;21.94;64.89
48796;BME280;34607;48.520;-1.330;2023-05-23T11:30:50;100888.28;;;22.31;65.20
48796;BME280;34607;48.520;-1.330;2023-05-23T11:33:18;100880.41;;;22.66;63.55
48796;BME280;34607;48.520;-1.330;2023-05-23T11:35:46;100879.34;;;22.73;63.58
48796;BME280;34607;48.520;-1.330;2023-05-23T11:38:14;100883.34;;;22.16;62.78
48796;BME280;34607;48.520;-1.330;2023-05-23T11:40:43;100889.81;;;22.01;62.54
48796;BME280;34607;48.520;-1.330;2023-05-23T11:43:11;100875.03;;;21.94;62.13
48796;BME280;34607;48.520;-1.330;2023-05-23T11:45:39;100883.75;;;22.36;61.77
48796;BME280;34607;48.520;-1.330;2023-05-23T11:48:09;100843.22;;;22.39;60.67
48796;BME280;34607;48.520;-1.330;2023-05-23T11:50:44;100862.84;;;22.63;59.51
48796;BME280;34607;48.520;-1.330;2023-05-23T11:53:13;100827.69;;;22.62;59.90
48796;BME280;34607;48.520;-1.330;2023-05-23T11:55:48;100850.63;;;22.60;58.22
48796;BME280;34607;48.520;-1.330;2023-05-23T11:58:15;100860.81;;;22.40;58.55
48796;BME280;34607;48.520;-1.330;2023-05-23T12:00:43;100871.16;;;22.48;59.54
48796;BME280;34607;48.520;-1.330;2023-05-23T12:03:12;100858.47;;;22.96;59.42
48796;BME280;34607;48.520;-1.330;2023-05-23T12:05:42;100851.53;;;22.58;57.83
48796;BME280;34607;48.520;-1.330;2023-05-23T12:08:11;100867.75;;;22.42;58.03
48796;BME280;34607;48.520;-1.330;2023-05-23T12:10:49;100871.53;;;22.32;59.37
48796;BME280;34607;48.520;-1.330;2023-05-23T12:13:17;100861.66;;;22.75;58.95
48796;BME280;34607;48.520;-1.330;2023-05-23T12:15:44;100875.69;;;22.42;59.07
48796;BME280;34607;48.520;-1.330;2023-05-23T12:18:13;100865.78;;;22.52;59.08
48796;BME280;34607;48.520;-1.330;2023-05-23T12:20:40;100868.63;;;22.43;59.35
48796;BME280;34607;48.520;-1.330;2023-05-23T12:23:17;100850.34;;;22.35;58.29
48796;BME280;34607;48.520;-1.330;2023-05-23T12:25:44;100860.84;;;22.38;59.09
48796;BME280;34607;48.520;-1.330;2023-05-23T12:28:15;100857.34;;;22.72;59.06
48796;BME280;34607;48.520;-1.330;2023-05-23T12:30:42;100866.84;;;23.14;58.21
48796;BME280;34607;48.520;-1.330;2023-05-23T12:33:09;100865.16;;;23.10;58.52
48796;BME280;34607;48.520;-1.330;2023-05-23T12:35:42;100863.94;;;22.89;58.64
48796;BME280;34607;48.520;-1.330;2023-05-23T12:38:13;100843.88;;;23.46;59.46
48796;BME280;34607;48.520;-1.330;2023-05-23T12:40:40;100859.50;;;23.55;58.72
48796;BME280;34607;48.520;-1.330;2023-05-23T12:43:08;100850.78;;;22.87;57.93
48796;BME280;34607;48.520;-1.330;2023-05-23T12:45:35;100862.81;;;22.65;57.69
48796;BME280;34607;48.520;-1.330;2023-05-23T12:48:04;100855.16;;;22.88;58.37
48796;BME280;34607;48.520;-1.330;2023-05-23T12:50:35;100860.63;;;23.15;57.78
48796;BME280;34607;48.520;-1.330;2023-05-23T12:53:05;100856.81;;;23.56;57.03
48796;BME280;34607;48.520;-1.330;2023-05-23T12:55:32;100859.75;;;23.46;56.56
48796;BME280;34607;48.520;-1.330;2023-05-23T12:57:59;100851.09;;;23.41;56.94
48796;BME280;34607;48.520;-1.330;2023-05-23T13:00:26;100852.06;;;23.38;56.88
48796;BME280;34607;48.520;-1.330;2023-05-23T13:02:53;100860.59;;;23.78;57.04
48796;BME280;34607;48.520;-1.330;2023-05-23T13:05:20;100858.41;;;23.62;56.41
48796;BME280;34607;48.520;-1.330;2023-05-23T13:07:47;100851.16;;;23.69;56.81
48796;BME280;34607;48.520;-1.330;2023-05-23T13:10:15;100846.25;;;23.25;56.50
48796;BME280;34607;48.520;-1.330;2023-05-23T13:12:42;100854.69;;;23.38;56.53
48796;BME280;34607;48.520;-1.330;2023-05-23T13:15:10;100847.91;;;23.59;56.65
48796;BME280;34607;48.520;-1.330;2023-05-23T13:17:37;100843.63;;;23.55;55.63
48796;BME280;34607;48.520;-1.330;2023-05-23T13:20:06;100831.53;;;23.48;55.14
48796;BME280;34607;48.520;-1.330;2023-05-23T13:22:34;100850.47;;;23.92;55.20
48796;BME280;34607;48.520;-1.330;2023-05-23T13:25:01;100852.66;;;23.48;54.75
48796;BME280;34607;48.520;-1.330;2023-05-23T13:27:29;100827.50;;;23.34;55.44
48796;BME280;34607;48.520;-1.330;2023-05-23T13:29:56;100849.31;;;23.71;56.01
48796;BME280;34607;48.520;-1.330;2023-05-23T13:32:24;100847.66;;;23.68;55.62
48796;BME280;34607;48.520;-1.330;2023-05-23T13:34:51;100841.16;;;23.79;54.91
48796;BME280;34607;48.520;-1.330;2023-05-23T13:37:18;100847.56;;;23.70;55.12
48796;BME280;34607;48.520;-1.330;2023-05-23T13:39:45;100843.28;;;23.37;55.83
48796;BME280;34607;48.520;-1.330;2023-05-23T13:42:12;100835.41;;;23.64;55.63
48796;BME280;34607;48.520;-1.330;2023-05-23T13:44:40;100833.28;;;23.77;54.25
48796;BME280;34607;48.520;-1.330;2023-05-23T13:47:11;100840.25;;;23.50;55.00
48796;BME280;34607;48.520;-1.330;2023-05-23T13:49:39;100831.41;;;22.88;55.87
48796;BME280;34607;48.520;-1.330;2023-05-23T13:52:06;100845.09;;;22.70;56.50
48796;BME280;34607;48.520;-1.330;2023-05-23T13:54:33;100855.59;;;22.37;55.97
48796;BME280;34607;48.520;-1.330;2023-05-23T13:57:00;100841.97;;;22.54;56.38
48796;BME280;34607;48.520;-1.330;2023-05-23T13:59:28;100818.09;;;22.58;55.82
48796;BME280;34607;48.520;-1.330;2023-05-23T14:01:56;100838.38;;;22.56;56.10
48796;BME280;34607;48.520;-1.330;2023-05-23T14:04:23;100833.81;;;22.63;55.13
48796;BME280;34607;48.520;-1.330;2023-05-23T14:06:50;100837.34;;;22.28;55.23
48796;BME280;34607;48.520;-1.330;2023-05-23T14:09:17;100850.50;;;21.90;56.19
48796;BME280;34607;48.520;-1.330;2023-05-23T14:11:44;100846.00;;;21.55;56.47
48796;BME280;34607;48.520;-1.330;2023-05-23T14:14:11;100839.63;;;21.21;56.52
48796;BME280;34607;48.520;-1.330;2023-05-23T14:16:38;100839.13;;;21.47;56.82
48796;BME280;34607;48.520;-1.330;2023-05-23T14:19:07;100840.03;;;21.87;56.05
48796;BME280;34607;48.520;-1.330;2023-05-23T14:21:34;100844.63;;;21.77;55.76
48796;BME280;34607;48.520;-1.330;2023-05-23T14:24:02;100829.59;;;21.82;56.15
48796;BME280;34607;48.520;-1.330;2023-05-23T14:26:29;100840.41;;;22.09;55.03
48796;BME280;34607;48.520;-1.330;2023-05-23T14:28:56;100837.19;;;21.95;55.56
48796;BME280;34607;48.520;-1.330;2023-05-23T14:31:23;100835.13;;;21.70;55.44
48796;BME280;34607;48.520;-1.330;2023-05-23T14:33:50;100833.75;;;21.52;55.17
48796;BME280;34607;48.520;-1.330;2023-05-23T14:36:18;100833.28;;;21.74;55.81
48796;BME280;34607;48.520;-1.330;2023-05-23T14:38:45;100833.69;;;21.55;56.70
48796;BME280;34607;48.520;-1.330;2023-05-23T14:41:13;100835.69;;;21.42;57.04
48796;BME280;34607;48.520;-1.330;2023-05-23T14:43:41;100831.84;;;21.15;56.96
48796;BME280;34607;48.520;-1.330;2023-05-23T14:46:08;100789.16;;;20.99;57.65
48796;BME280;34607;48.520;-1.330;2023-05-23T14:48:35;100828.41;;;21.11;57.93
48796;BME280;34607;48.520;-1.330;2023-05-23T14:51:02;100819.97;;;20.94;58.09
48796;BME280;34607;48.520;-1.330;2023-05-23T14:53:31;100842.25;;;20.74;59.15
48796;BME280;34607;48.520;-1.330;2023-05-23T14:55:58;100839.94;;;20.54;59.05
48796;BME280;34607;48.520;-1.330;2023-05-23T14:58:25;100840.72;;;20.63;59.93
48796;BME280;34607;48.520;-1.330;2023-05-23T15:00:52;100844.59;;;20.38;60.76
48796;BME280;34607;48.520;-1.330;2023-05-23T15:03:19;100834.88;;;20.42;60.50
48796;BME280;34607;48.520;-1.330;2023-05-23T15:05:46;100836.34;;;20.63;60.82
48796;BME280;34607;48.520;-1.330;2023-05-23T15:08:14;100831.06;;;20.63;60.63
48796;BME280;34607;48.520;-1.330;2023-05-23T15:10:43;100832.88;;;20.58;60.39
48796;BME280;34607;48.520;-1.330;2023-05-23T15:13:10;100835.56;;;20.55;61.26
48796;BME280;34607;48.520;-1.330;2023-05-23T15:15:37;100841.41;;;20.74;60.83
48796;BME280;34607;48.520;-1.330;2023-05-23T15:18:05;100838.34;;;20.44;60.78
48796;BME280;34607;48.520;-1.330;2023-05-23T15:20:34;100836.59;;;20.46;61.31
48796;BME280;34607;48.520;-1.330;2023-05-23T15:23:02;100809.53;;;20.38;61.85
48796;BME280;34607;48.520;-1.330;2023-05-23T15:25:29;100833.84;;;20.51;62.65
48796;BME280;34607;48.520;-1.330;2023-05-23T15:27:58;100826.94;;;20.45;62.21
48796;BME280;34607;48.520;-1.330;2023-05-23T15:30:25;100826.31;;;20.32;62.70
48796;BME280;34607;48.520;-1.330;2023-05-23T15:32:52;100840.84;;;19.97;62.72
48796;BME280;34607;48.520;-1.330;2023-05-23T15:35:19;100849.91;;;19.76;63.41
48796;BME280;34607;48.520;-1.330;2023-05-23T15:37:46;100851.34;;;19.97;63.07
48796;BME280;34607;48.520;-1.330;2023-05-23T15:40:13;100844.47;;;19.90;62.71
48796;BME280;34607;48.520;-1.330;2023-05-23T15:42:40;100844.66;;;19.75;61.94
48796;BME280;34607;48.520;-1.330;2023-05-23T15:45:10;100849.06;;;19.71;61.19
48796;BME280;34607;48.520;-1.330;2023-05-23T15:47:37;100846.84;;;19.39;60.95
48796;BME280;34607;48.520;-1.330;2023-05-23T15:50:05;100854.06;;;19.21;61.96
48796;BME280;34607;48.520;-1.330;2023-05-23T15:52:32;100850.25;;;19.47;60.83
48796;BME280;34607;48.520;-1.330;2023-05-23T15:54:59;100852.91;;;19.45;60.37
48796;BME280;34607;48.520;-1.330;2023-05-23T15:57:30;100850.34;;;19.38;59.96
48796;BME280;34607;48.520;-1.330;2023-05-23T15:59:57;100859.91;;;19.45;59.54
48796;BME280;34607;48.520;-1.330;2023-05-23T16:02:25;100872.19;;;19.41;59.06
48796;BME280;34607;48.520;-1.330;2023-05-23T16:04:52;100874.09;;;19.30;59.96
48796;BME280;34607;48.520;-1.330;2023-05-23T16:07:19;100863.91;;;19.01;60.18
48796;BME280;34607;48.520;-1.330;2023-05-23T16:09:46;100848.31;;;18.87;60.99
48796;BME280;34607;48.520;-1.330;2023-05-23T16:12:13;100850.97;;;18.78;61.29
48796;BME280;34607;48.520;-1.330;2023-05-23T16:14:40;100850.16;;;18.71;60.81
48796;BME280;34607;48.520;-1.330;2023-05-23T16:17:07;100871.44;;;18.37;61.44
48796;BME280;34607;48.520;-1.330;2023-05-23T16:19:36;100858.38;;;18.31;61.78
48796;BME280;34607;48.520;-1.330;2023-05-23T16:22:03;100862.72;;;18.33;62.27
48796;BME280;34607;48.520;-1.330;2023-05-23T16:24:30;100848.72;;;18.36;62.80
48796;BME280;34607;48.520;-1.330;2023-05-23T16:26:58;100851.41;;;18.28;63.34
48796;BME280;34607;48.520;-1.330;2023-05-23T16:29:25;100848.09;;;17.97;64.52
48796;BME280;34607;48.520;-1.330;2023-05-23T16:31:52;100843.97;;;17.50;65.16
48796;BME280;34607;48.520;-1.330;2023-05-23T16:34:19;100840.47;;;17.48;66.09
48796;BME280;34607;48.520;-1.330;2023-05-23T16:36:48;100831.91;;;17.07;67.13
48796;BME280;34607;48.520;-1.330;2023-05-23T16:39:15;100827.56;;;16.95;67.77
48796;BME280;34607;48.520;-1.330;2023-05-23T16:41:42;100834.53;;;16.96;68.12
48796;BME280;34607;48.520;-1.330;2023-05-23T16:44:09;100841.50;;;16.97;68.03
48796;BME280;34607;48.520;-1.330;2023-05-23T16:46:36;100843.22;;;17.03;68.17
48796;BME280;34607;48.520;-1.330;2023-05-23T16:49:03;100845.84;;;17.09;68.38
48796;BME280;34607;48.520;-1.330;2023-05-23T16:51:30;100845.78;;;17.31;67.43
48796;BME280;34607;48.520;-1.330;2023-05-23T16:53:59;100844.03;;;17.33;66.93
48796;BME280;34607;48.520;-1.330;2023-05-23T16:56:26;100855.34;;;17.36;67.24
48796;BME280;34607;48.520;-1.330;2023-05-23T16:58:53;100847.50;;;17.41;67.04
48796;BME280;34607;48.520;-1.330;2023-05-23T17:01:20;100850.97;;;17.45;66.89
48796;BME280;34607;48.520;-1.330;2023-05-23T17:03:47;100837.09;;;17.19;67.23
48796;BME280;34607;48.520;-1.330;2023-05-23T17:06:14;100839.78;;;16.84;67.96
48796;BME280;34607;48.520;-1.330;2023-05-23T17:08:41;100832.81;;;16.61;68.28
48796;BME280;34607;48.520;-1.330;2023-05-23T17:11:09;100838.91;;;16.53;68.20
48796;BME280;34607;48.520;-1.330;2023-05-23T17:13:36;100842.38;;;16.50;68.82
48796;BME280;34607;48.520;-1.330;2023-05-23T17:16:03;100842.41;;;16.47;68.33
48796;BME280;34607;48.520;-1.330;2023-05-23T17:18:30;100841.50;;;16.45;68.13
48796;BME280;34607;48.520;-1.330;2023-05-23T17:20:58;100838.91;;;16.48;68.36
48796;BME280;34607;48.520;-1.330;2023-05-23T17:23:25;100841.53;;;16.40;67.90
48796;BME280;34607;48.520;-1.330;2023-05-23T17:25:53;100839.78;;;16.35;68.05
48796;BME280;34607;48.520;-1.330;2023-05-23T17:28:21;100849.38;;;16.36;68.10
48796;BME280;34607;48.520;-1.330;2023-05-23T17:30:48;100855.47;;;16.28;68.62
48796;BME280;34607;48.520;-1.330;2023-05-23T17:33:17;100852.00;;;16.26;68.85
48796;BME280;34607;48.520;-1.330;2023-05-23T17:35:44;100835.41;;;16.12;69.08
48796;BME280;34607;48.520;-1.330;2023-05-23T17:38:12;100851.09;;;16.15;68.75
48796;BME280;34607;48.520;-1.330;2023-05-23T17:40:39;100851.09;;;16.29;68.59
48796;BME280;34607;48.520;-1.330;2023-05-23T17:43:07;100851.09;;;16.27;69.07
48796;BME280;34607;48.520;-1.330;2023-05-23T17:45:35;100853.72;;;16.27;69.31
48796;BME280;34607;48.520;-1.330;2023-05-23T17:48:02;100849.38;;;16.28;69.63
48796;BME280;34607;48.520;-1.330;2023-05-23T17:50:29;100847.63;;;16.16;69.82
48796;BME280;34607;48.520;-1.330;2023-05-23T17:52:56;100847.59;;;16.10;70.48
48796;BME280;34607;48.520;-1.330;2023-05-23T17:55:23;100849.31;;;15.93;70.94
48796;BME280;34607;48.520;-1.330;2023-05-23T17:57:50;100816.06;;;15.50;71.56
48796;BME280;34607;48.520;-1.330;2023-05-23T18:00:18;100848.41;;;15.75;71.55
48796;BME280;34607;48.520;-1.330;2023-05-23T18:02:47;100852.66;;;15.64;71.77
48796;BME280;34607;48.520;-1.330;2023-05-23T18:05:15;100837.88;;;15.64;71.94
48796;BME280;34607;48.520;-1.330;2023-05-23T18:07:44;100844.88;;;15.71;71.84
48796;BME280;34607;48.520;-1.330;2023-05-23T18:10:12;100843.13;;;15.72;71.89
48796;BME280;34607;48.520;-1.330;2023-05-23T18:12:40;100848.41;;;15.83;72.05
48796;BME280;34607;48.520;-1.330;2023-05-23T18:15:08;100840.50;;;15.63;72.91
48796;BME280;34607;48.520;-1.330;2023-05-23T18:17:35;100841.28;;;15.43;73.82
48796;BME280;34607;48.520;-1.330;2023-05-23T18:20:05;100843.94;;;15.52;74.01
48796;BME280;34607;48.520;-1.330;2023-05-23T18:22:32;100841.31;;;15.54;74.17
48796;BME280;34607;48.520;-1.330;2023-05-23T18:24:59;100852.63;;;15.59;74.00
48796;BME280;34607;48.520;-1.330;2023-05-23T18:27:26;100859.59;;;15.52;74.48
48796;BME280;34607;48.520;-1.330;2023-05-23T18:29:53;100861.31;;;15.44;74.89
48796;BME280;34607;48.520;-1.330;2023-05-23T18:32:20;100867.38;;;15.43;75.14
48796;BME280;34607;48.520;-1.330;2023-05-23T18:34:48;100856.91;;;15.34;75.62
48796;BME280;34607;48.520;-1.330;2023-05-23T18:37:16;100868.22;;;15.38;75.74
48796;BME280;34607;48.520;-1.330;2023-05-23T18:39:43;100854.25;;;15.26;76.14
48796;BME280;34607;48.520;-1.330;2023-05-23T18:42:11;100869.06;;;15.30;76.12
48796;BME280;34607;48.520;-1.330;2023-05-23T18:44:38;100875.13;;;15.22;76.56
48796;BME280;34607;48.520;-1.330;2023-05-23T18:47:05;100875.94;;;15.11;77.07
48796;BME280;34607;48.520;-1.330;2023-05-23T18:49:32;100872.41;;;15.11;76.94
48796;BME280;34607;48.520;-1.330;2023-05-23T18:51:59;100868.88;;;14.98;77.35
48796;BME280;34607;48.520;-1.330;2023-05-23T18:54:28;100880.91;;;14.77;78.21
48796;BME280;34607;48.520;-1.330;2023-05-23T18:56:54;100874.72;;;14.66;78.57
48796;BME280;34607;48.520;-1.330;2023-05-23T18:59:22;100886.97;;;14.78;78.25
48796;BME280;34607;48.520;-1.330;2023-05-23T19:01:49;100893.97;;;14.85;78.60
48796;BME280;34607;48.520;-1.330;2023-05-23T19:04:16;100904.34;;;14.76;79.24
48796;BME280;34607;48.520;-1.330;2023-05-23T19:06:44;100904.34;;;14.76;79.46
48796;BME280;34607;48.520;-1.330;2023-05-23T19:09:11;100899.19;;;14.84;79.00
48796;BME280;34607;48.520;-1.330;2023-05-23T19:11:39;100882.53;;;14.66;78.83
48796;BME280;34607;48.520;-1.330;2023-05-23T19:14:07;100887.78;;;14.71;78.59
48796;BME280;34607;48.520;-1.330;2023-05-23T19:16:37;100900.78;;;14.68;79.18
48796;BME280;34607;48.520;-1.330;2023-05-23T19:19:04;100917.28;;;14.64;79.30
48796;BME280;34607;48.520;-1.330;2023-05-23T19:21:31;100876.13;;;14.32;79.59
48796;BME280;34607;48.520;-1.330;2023-05-23T19:23:58;100919.69;;;14.45;80.10
48796;BME280;34607;48.520;-1.330;2023-05-23T19:26:25;100924.97;;;14.54;79.65
48796;BME280;34607;48.520;-1.330;2023-05-23T19:28:54;100887.47;;;14.37;79.24
48796;BME280;34607;48.520;-1.330;2023-05-23T19:31:21;100925.69;;;14.36;79.68
48796;BME280;34607;48.520;-1.330;2023-05-23T19:33:48;100929.13;;;14.34;79.85
48796;BME280;34607;48.520;-1.330;2023-05-23T19:36:15;100893.22;;;14.07;79.75
48796;BME280;34607;48.520;-1.330;2023-05-23T19:38:42;100938.56;;;14.22;79.90
48796;BME280;34607;48.520;-1.330;2023-05-23T19:41:09;100942.72;;;14.08;79.74
48796;BME280;34607;48.520;-1.330;2023-05-23T19:43:36;100947.16;;;14.14;79.67
48796;BME280;34607;48.520;-1.330;2023-05-23T19:46:05;100953.16;;;14.10;79.91
48796;BME280;34607;48.520;-1.330;2023-05-23T19:48:33;100946.97;;;13.98;80.13
48796;BME280;34607;48.520;-1.330;2023-05-23T19:51:00;100948.72;;;13.99;79.91
48796;BME280;34607;48.520;-1.330;2023-05-23T19:53:27;100944.16;;;13.80;80.56
48796;BME280;34607;48.520;-1.330;2023-05-23T19:55:54;100946.75;;;13.80;80.77
48796;BME280;34607;48.520;-1.330;2023-05-23T19:58:22;100957.28;;;13.91;80.22
48796;BME280;34607;48.520;-1.330;2023-05-23T20:00:49;100958.13;;;13.88;80.01
48796;BME280;34607;48.520;-1.330;2023-05-23T20:03:17;100965.84;;;13.80;80.20
48796;BME280;34607;48.520;-1.330;2023-05-23T20:05:44;100969.16;;;13.70;80.45
48796;BME280;34607;48.520;-1.330;2023-05-23T20:08:11;100965.69;;;13.70;80.18
48796;BME280;34607;48.520;-1.330;2023-05-23T20:10:39;100972.81;;;13.84;80.00
48796;BME280;34607;48.520;-1.330;2023-05-23T20:13:07;100965.06;;;13.89;79.41
48796;BME280;34607;48.520;-1.330;2023-05-23T20:15:35;100979.06;;;13.97;79.19
48796;BME280;34607;48.520;-1.330;2023-05-23T20:18:03;100980.75;;;13.94;79.09
48796;BME280;34607;48.520;-1.330;2023-05-23T20:20:31;100980.69;;;13.89;79.13
48796;BME280;34607;48.520;-1.330;2023-05-23T20:22:59;100971.88;;;13.78;79.39